createdAt,value
2018-07-12T00:00:49.806Z,87.50
2018-07-12T00:03:16.353Z,86.28
2018-07-12T00:05:42.606Z,87.61
2018-07-12T00:08:08.860Z,88.06
2018-07-12T00:10:35.116Z,88.04
2018-07-12T00:13:01.343Z,87.93
2018-07-12T00:15:27.564Z,87.73
2018-07-12T00:17:53.809Z,87.89
2018-07-12T00:20:20.047Z,87.12
2018-07-12T00:22:46.638Z,87.18
2018-07-12T00:25:13.136Z,87.81
2018-07-12T00:27:39.407Z,87.55
2018-07-12T00:30:05.683Z,88.30
2018-07-12T00:32:31.936Z,87.90
2018-07-12T00:34:58.161Z,88.44
2018-07-12T00:37:24.493Z,88.27
2018-07-12T00:39:51.301Z,88.25
2018-07-12T00:42:17.553Z,88.18
2018-07-12T00:44:43.982Z,88.01
2018-07-12T00:47:10.279Z,87.90
2018-07-12T00:49:36.597Z,86.57
2018-07-12T00:52:03.214Z,89.08
2018-07-12T00:54:29.439Z,88.66
2018-07-12T00:56:55.660Z,88.16
2018-07-12T00:59:21.977Z,88.81
2018-07-12T01:01:48.349Z,88.86
2018-07-12T01:04:14.659Z,88.06
2018-07-12T01:06:41.082Z,88.88
2018-07-12T01:09:07.294Z,89.13
2018-07-12T01:11:34.797Z,89.44
2018-07-12T01:14:01.170Z,89.71
2018-07-12T01:16:27.409Z,88.95
2018-07-12T01:18:53.848Z,89.25
2018-07-12T01:21:20.128Z,88.76
2018-07-12T01:23:46.973Z,89.13
2018-07-12T01:26:13.251Z,87.33
2018-07-12T01:28:39.471Z,89.18
2018-07-12T01:31:06.412Z,89.44
2018-07-12T01:33:32.865Z,89.57
2018-07-12T01:35:59.108Z,89.36
2018-07-12T01:38:25.704Z,89.24
2018-07-12T01:40:52.034Z,88.96
2018-07-12T01:43:18.318Z,89.67
2018-07-12T01:45:44.571Z,88.43
2018-07-12T01:48:10.901Z,88.48
2018-07-12T01:50:37.146Z,89.27
2018-07-12T01:53:03.436Z,89.49
2018-07-12T01:55:29.712Z,90.04
2018-07-12T01:57:56.025Z,88.91
2018-07-12T02:00:22.353Z,88.99
2018-07-12T02:02:48.698Z,89.52
2018-07-12T02:05:15.253Z,88.98
2018-07-12T02:07:41.451Z,89.65
2018-07-12T02:10:07.663Z,90.02
2018-07-12T02:12:33.881Z,89.38
2018-07-12T02:15:00.094Z,89.82
2018-07-12T02:17:26.425Z,89.01
2018-07-12T02:19:52.710Z,88.89
2018-07-12T02:22:18.912Z,89.79
2018-07-12T02:24:45.125Z,89.99
2018-07-12T02:27:11.366Z,89.30
2018-07-12T02:29:37.569Z,89.72
2018-07-12T02:32:03.760Z,88.92
2018-07-12T02:34:29.985Z,89.60
2018-07-12T02:36:56.320Z,90.67
2018-07-12T02:39:22.629Z,90.93
2018-07-12T02:41:48.949Z,90.71
2018-07-12T02:44:15.213Z,89.98
2018-07-12T02:46:41.419Z,90.61
2018-07-12T02:49:07.623Z,89.94
2018-07-12T02:51:33.886Z,90.38
2018-07-12T02:54:00.135Z,89.20
2018-07-12T02:56:26.345Z,89.61
2018-07-12T02:58:52.614Z,89.19
2018-07-12T03:01:18.895Z,90.17
2018-07-12T03:03:45.144Z,89.90
2018-07-12T03:06:11.353Z,89.83
2018-07-12T03:08:37.593Z,90.24
2018-07-12T03:11:03.878Z,89.88
2018-07-12T03:13:30.119Z,89.08
2018-07-12T03:15:56.502Z,90.08
2018-07-12T03:18:22.740Z,90.33
2018-07-12T03:20:48.979Z,89.29
2018-07-12T03:23:15.208Z,89.64
2018-07-12T03:25:41.403Z,90.40
2018-07-12T03:28:07.652Z,88.55
2018-07-12T03:30:33.935Z,90.44
2018-07-12T03:33:00.792Z,90.26
2018-07-12T03:35:27.018Z,90.33
2018-07-12T03:37:53.240Z,89.76
2018-07-12T03:40:19.473Z,89.94
2018-07-12T03:42:45.681Z,89.77
2018-07-12T03:45:11.905Z,88.18
2018-07-12T03:47:38.180Z,90.32
2018-07-12T03:50:04.400Z,89.64
2018-07-12T03:52:30.633Z,89.43
2018-07-12T03:54:56.878Z,90.13
2018-07-12T03:57:23.187Z,89.32
2018-07-12T03:59:49.407Z,89.34
2018-07-12T04:02:15.661Z,89.93
2018-07-12T04:04:41.910Z,89.49
2018-07-12T04:07:08.145Z,89.16
2018-07-12T04:09:34.459Z,90.06
2018-07-12T04:12:00.715Z,88.76
2018-07-12T04:14:26.915Z,89.55
2018-07-12T04:16:53.122Z,90.00
2018-07-12T04:19:19.335Z,89.12
2018-07-12T04:21:45.574Z,88.76
2018-07-12T04:24:11.789Z,89.78
2018-07-12T04:26:38.008Z,88.94
2018-07-12T04:29:04.244Z,89.79
2018-07-12T04:31:30.453Z,88.59
2018-07-12T04:33:56.680Z,88.88
2018-07-12T04:36:22.941Z,89.13
2018-07-12T04:38:49.181Z,88.86
2018-07-12T04:41:16.087Z,88.28
2018-07-12T04:43:42.346Z,88.16
2018-07-12T04:46:08.589Z,88.88
2018-07-12T04:48:34.833Z,88.61
2018-07-12T04:51:01.154Z,88.75
2018-07-12T04:53:27.360Z,88.99
2018-07-12T04:55:53.673Z,88.35
2018-07-12T04:58:20.092Z,88.40
2018-07-12T05:00:46.220Z,88.38
2018-07-12T05:03:12.525Z,88.22
2018-07-12T05:05:38.737Z,87.32
2018-07-12T05:08:04.998Z,87.61
2018-07-12T05:10:31.613Z,87.13
2018-07-12T05:12:57.845Z,87.41
2018-07-12T05:15:24.697Z,87.10
2018-07-12T05:17:50.944Z,86.65
2018-07-12T05:20:17.265Z,86.72
2018-07-12T05:22:43.516Z,86.67
2018-07-12T05:25:09.771Z,86.30
2018-07-12T05:27:36.065Z,86.22
2018-07-12T05:30:02.366Z,86.53
2018-07-12T05:32:28.662Z,86.65
2018-07-12T05:34:55.052Z,86.24
2018-07-12T05:37:22.333Z,85.84
2018-07-12T05:39:50.021Z,85.35
2018-07-12T05:42:17.284Z,85.04
2018-07-12T05:44:44.527Z,84.58
2018-07-12T05:47:11.779Z,84.08
2018-07-12T05:49:39.123Z,84.50
2018-07-12T05:52:06.514Z,84.68
2018-07-12T05:54:33.867Z,83.14
2018-07-12T05:57:01.204Z,82.72
2018-07-12T05:59:28.555Z,82.97
2018-07-12T06:02:07.065Z,83.12
2018-07-12T06:04:35.234Z,82.94
2018-07-12T06:07:02.636Z,82.57
2018-07-12T06:09:29.945Z,83.58
2018-07-12T06:11:57.224Z,83.13
2018-07-12T06:14:24.495Z,82.50
2018-07-12T06:16:51.774Z,82.14
2018-07-12T06:19:19.262Z,82.20
2018-07-12T06:21:46.617Z,81.79
2018-07-12T06:24:13.969Z,81.76
2018-07-12T06:26:41.293Z,81.13
2018-07-12T06:29:08.601Z,81.00
2018-07-12T06:31:35.829Z,80.92
2018-07-12T06:34:03.251Z,78.42
2018-07-12T06:36:30.552Z,79.15
2018-07-12T06:38:57.934Z,78.97
2018-07-12T06:41:25.358Z,79.29
2018-07-12T06:43:52.647Z,80.28
2018-07-12T06:46:19.952Z,80.00
2018-07-12T06:48:47.310Z,79.16
2018-07-12T06:51:14.823Z,79.14
2018-07-12T06:53:42.207Z,78.16
2018-07-12T06:56:09.614Z,78.27
2018-07-12T06:58:36.913Z,77.73
2018-07-12T07:01:04.362Z,77.86
2018-07-12T07:03:31.748Z,77.70
2018-07-12T07:05:59.276Z,78.74
2018-07-12T07:08:26.928Z,77.35
2018-07-12T07:10:54.193Z,78.32
2018-07-12T07:13:21.547Z,77.67
2018-07-12T07:15:49.248Z,76.15
2018-07-12T07:18:17.770Z,75.88
2018-07-12T07:20:45.881Z,75.50
2018-07-12T07:23:13.297Z,74.64
2018-07-12T07:25:40.738Z,75.32
2018-07-12T07:28:08.345Z,74.74
2018-07-12T07:30:35.868Z,75.04
2018-07-12T07:33:03.183Z,75.63
2018-07-12T07:35:30.673Z,74.14
2018-07-12T07:37:58.021Z,74.22
2018-07-12T07:40:25.406Z,75.81
2018-07-12T07:42:52.731Z,77.14
2018-07-12T07:45:19.983Z,74.62
2018-07-12T07:47:47.253Z,73.77
2018-07-12T07:50:14.613Z,74.52
2018-07-12T07:52:41.927Z,74.95
2018-07-12T07:55:09.200Z,74.15
2018-07-12T07:57:36.474Z,72.90
2018-07-12T08:00:04.180Z,74.54
2018-07-12T08:02:32.104Z,72.40
2018-07-12T08:04:59.459Z,68.74
2018-07-12T08:07:26.721Z,70.35
2018-07-12T08:09:53.998Z,72.65
2018-07-12T08:12:21.305Z,73.92
2018-07-12T08:14:48.638Z,73.15
2018-07-12T08:17:15.924Z,72.84
2018-07-12T08:19:43.513Z,73.04
2018-07-12T08:22:10.897Z,73.87
2018-07-12T08:24:39.171Z,71.16
2018-07-12T08:27:06.653Z,72.72
2018-07-12T08:29:34.127Z,71.93
2018-07-12T08:32:02.621Z,70.76
2018-07-12T08:34:29.880Z,70.27
2018-07-12T08:36:57.260Z,69.35
2018-07-12T08:39:24.651Z,66.79
2018-07-12T08:41:52.266Z,63.31
2018-07-12T08:44:19.888Z,65.65
2018-07-12T08:46:47.356Z,63.50
2018-07-12T08:49:15.634Z,61.94
2018-07-12T08:51:42.927Z,62.30
2018-07-12T08:54:10.234Z,62.19
2018-07-12T08:56:37.503Z,62.98
2018-07-12T08:59:04.785Z,64.05
2018-07-12T09:01:32.094Z,64.31
2018-07-12T09:03:59.444Z,63.08
2018-07-12T09:06:26.822Z,63.11
2018-07-12T09:08:54.238Z,65.21
2018-07-12T09:11:21.532Z,65.12
2018-07-12T09:13:48.830Z,63.68
2018-07-12T09:16:16.220Z,63.01
2018-07-12T09:18:44.196Z,63.66
2018-07-12T09:21:11.668Z,64.12
2018-07-12T09:23:39.125Z,64.33
2018-07-12T09:28:33.292Z,63.13
2018-07-12T09:31:00.694Z,64.69
2018-07-12T09:33:28.010Z,64.59
2018-07-12T09:35:55.287Z,64.68
2018-07-12T09:38:34.833Z,63.99
2018-07-12T09:41:02.245Z,63.52
2018-07-12T09:43:29.876Z,62.78
2018-07-12T09:45:57.229Z,63.13
2018-07-12T09:48:24.752Z,61.51
2018-07-12T09:50:52.169Z,60.23
2018-07-12T09:53:19.417Z,56.80
2018-07-12T09:55:46.819Z,53.48
2018-07-12T09:58:26.398Z,53.22
2018-07-12T10:00:59.339Z,48.11
2018-07-12T10:03:32.349Z,45.49
2018-07-12T10:05:59.808Z,43.29
2018-07-12T10:08:32.669Z,40.48
2018-07-12T10:11:05.526Z,39.10
2018-07-12T10:13:38.250Z,38.53
2018-07-12T10:16:11.394Z,36.68
2018-07-12T10:18:38.781Z,36.54
2018-07-12T10:21:06.154Z,36.97
2018-07-12T10:23:33.409Z,33.70
2018-07-12T10:26:01.362Z,35.70
2018-07-12T10:28:28.755Z,39.72
2018-07-12T10:30:56.176Z,39.90
2018-07-12T10:33:23.435Z,40.73
2018-07-12T10:35:50.714Z,37.55
2018-07-12T10:38:18.332Z,38.09
2018-07-12T10:40:46.837Z,38.40
2018-07-12T10:43:14.255Z,37.60
2018-07-12T10:45:42.090Z,34.44
2018-07-12T10:48:09.446Z,33.93
2018-07-12T10:50:36.796Z,37.12
2018-07-12T10:53:04.216Z,36.46
2018-07-12T10:55:31.442Z,35.83
2018-07-12T10:57:58.977Z,34.86
2018-07-12T11:00:26.396Z,35.56
2018-07-12T11:02:53.951Z,36.96
2018-07-12T11:05:21.366Z,42.21
2018-07-12T11:07:48.942Z,42.68
2018-07-12T11:10:16.198Z,40.13
2018-07-12T11:12:43.453Z,41.48
2018-07-12T11:15:10.771Z,38.89
2018-07-12T11:17:38.787Z,34.71
2018-07-12T11:22:40.042Z,32.54
2018-07-12T11:25:07.331Z,31.59
2018-07-12T11:27:34.616Z,31.65
2018-07-12T11:30:01.945Z,31.75
2018-07-12T11:32:29.700Z,32.41
2018-07-12T11:34:57.112Z,33.20
2018-07-12T11:37:25.524Z,31.61
2018-07-12T11:39:52.825Z,32.34
2018-07-12T11:42:20.130Z,31.75
2018-07-12T11:44:47.954Z,33.66
2018-07-12T11:47:15.250Z,35.49
2018-07-12T11:49:42.552Z,36.35
2018-07-12T11:52:10.054Z,39.81
2018-07-12T11:54:37.547Z,38.96
2018-07-12T11:57:04.839Z,41.69
2018-07-12T11:59:32.116Z,40.99
2018-07-12T12:01:59.398Z,43.15
2018-07-12T12:04:26.663Z,44.20
2018-07-12T12:06:53.919Z,44.20
2018-07-12T12:09:21.257Z,44.23
2018-07-12T12:11:48.526Z,47.07
2018-07-12T12:14:15.790Z,44.49
2018-07-12T12:16:43.065Z,46.11
2018-07-12T12:19:10.340Z,45.45
2018-07-12T12:21:37.744Z,47.22
2018-07-12T12:24:05.150Z,45.50
2018-07-12T12:26:32.448Z,44.92
2018-07-12T12:28:59.777Z,43.54
2018-07-12T12:31:27.751Z,44.38
2018-07-12T12:33:55.159Z,44.42
2018-07-12T12:36:22.746Z,44.76
2018-07-12T12:38:50.788Z,47.33
2018-07-12T12:41:18.375Z,45.05
2018-07-12T12:43:45.781Z,44.77
2018-07-12T12:46:13.282Z,45.35
2018-07-12T12:48:40.582Z,45.03
2018-07-12T12:51:07.819Z,46.16
2018-07-12T12:53:35.172Z,46.19
2018-07-12T12:56:02.522Z,47.26
2018-07-12T12:58:30.313Z,46.25
2018-07-12T13:00:58.237Z,47.53
2018-07-12T13:03:25.760Z,48.06
2018-07-12T13:05:53.098Z,48.28
2018-07-12T13:08:20.327Z,46.82
2018-07-12T13:10:47.817Z,47.38
2018-07-12T13:13:15.157Z,47.76
2018-07-12T13:15:42.441Z,46.50
2018-07-12T13:18:09.733Z,47.65
2018-07-12T13:20:37.060Z,48.36
2018-07-12T13:23:04.412Z,49.26
2018-07-12T13:25:31.724Z,48.96
2018-07-12T13:27:59.049Z,47.41
2018-07-12T13:30:33.003Z,48.73
2018-07-12T13:33:00.345Z,47.88
2018-07-12T13:35:27.720Z,48.66
2018-07-12T13:37:55.057Z,50.00
2018-07-12T13:40:22.351Z,48.90
2018-07-12T13:42:49.622Z,48.95
2018-07-12T13:45:16.945Z,47.80
2018-07-12T13:47:44.285Z,46.95
2018-07-12T13:50:11.573Z,48.31
2018-07-12T13:52:38.848Z,48.19
2018-07-12T13:55:06.233Z,47.44
2018-07-12T13:57:33.659Z,48.11
2018-07-12T14:00:00.915Z,48.32
2018-07-12T14:02:28.688Z,48.57
2018-07-12T14:04:56.226Z,48.93
2018-07-12T14:07:23.598Z,47.74
2018-07-12T14:09:50.957Z,49.14
2018-07-12T14:12:18.255Z,48.57
2018-07-12T14:14:45.515Z,46.99
2018-07-12T14:17:12.822Z,47.41
2018-07-12T14:19:40.136Z,48.66
2018-07-12T14:22:07.387Z,50.01
2018-07-12T14:24:34.607Z,49.24
2018-07-12T14:27:02.137Z,49.09
2018-07-12T14:29:29.481Z,48.68
2018-07-12T14:31:56.821Z,48.52
2018-07-12T14:34:24.113Z,50.31
2018-07-12T14:36:51.511Z,49.98
2018-07-12T14:39:18.849Z,49.96
2018-07-12T14:41:46.260Z,49.49
2018-07-12T14:44:13.716Z,49.98
2018-07-12T14:46:41.075Z,50.75
2018-07-12T14:49:08.319Z,51.48
2018-07-12T14:51:36.379Z,51.47
2018-07-12T14:54:03.718Z,50.92
2018-07-12T14:56:31.030Z,50.62
2018-07-12T14:58:58.294Z,51.24
2018-07-12T15:01:25.757Z,51.27
2018-07-12T15:03:53.064Z,51.64
2018-07-12T15:06:20.391Z,51.55
2018-07-12T15:08:47.759Z,50.90
2018-07-12T15:11:15.188Z,52.70
2018-07-12T15:13:42.535Z,51.40
2018-07-12T15:16:10.615Z,51.70
2018-07-12T15:18:38.081Z,51.30
2018-07-12T15:21:05.612Z,51.87
2018-07-12T15:23:32.985Z,52.22
2018-07-12T15:26:00.486Z,52.42
2018-07-12T15:28:27.723Z,52.31
2018-07-12T15:30:55.209Z,52.76
2018-07-12T15:33:22.599Z,52.36
2018-07-12T15:35:49.909Z,51.79
2018-07-12T15:38:17.278Z,51.66
2018-07-12T15:40:44.563Z,52.06
2018-07-12T15:43:11.967Z,52.09
2018-07-12T15:45:39.385Z,52.83
2018-07-12T15:48:06.721Z,52.61
2018-07-12T15:50:34.022Z,53.03
2018-07-12T15:53:01.376Z,52.50
2018-07-12T15:55:28.937Z,53.91
2018-07-12T15:57:56.486Z,53.95
2018-07-12T16:00:24.168Z,54.20
2018-07-12T16:02:51.483Z,54.36
2018-07-12T16:05:18.936Z,55.16
2018-07-12T16:07:46.442Z,55.97
2018-07-12T16:10:13.856Z,55.04
2018-07-12T16:12:41.217Z,55.17
2018-07-12T16:15:09.155Z,54.40
2018-07-12T16:17:36.519Z,55.93
2018-07-12T16:20:04.531Z,56.05
2018-07-12T16:22:32.041Z,55.81
2018-07-12T16:24:59.425Z,57.18
2018-07-12T16:27:26.752Z,56.98
2018-07-12T16:29:54.131Z,56.44
2018-07-12T16:32:21.445Z,59.24
2018-07-12T16:34:48.807Z,61.94
2018-07-12T16:37:16.342Z,62.40
2018-07-12T16:39:43.760Z,61.55
2018-07-12T16:42:11.150Z,63.57
2018-07-12T16:44:38.615Z,63.17
2018-07-12T16:47:06.205Z,62.25
2018-07-12T16:49:33.681Z,63.39
2018-07-12T16:52:01.159Z,63.86
2018-07-12T16:54:28.818Z,63.79
2018-07-12T16:56:56.180Z,64.37
2018-07-12T16:59:23.608Z,63.75
2018-07-12T17:01:51.004Z,63.82
2018-07-12T17:04:18.352Z,63.92
2018-07-12T17:06:45.790Z,63.89
2018-07-12T17:09:13.117Z,65.96
2018-07-12T17:11:40.486Z,65.13
2018-07-12T17:14:07.813Z,65.29
2018-07-12T17:16:35.172Z,65.54
2018-07-12T17:19:02.554Z,64.15
2018-07-12T17:21:29.898Z,64.01
2018-07-12T17:23:57.237Z,65.37
2018-07-12T17:26:24.794Z,65.64
2018-07-12T17:28:52.539Z,65.82
2018-07-12T17:31:19.896Z,65.39
2018-07-12T17:33:47.897Z,65.29
2018-07-12T17:36:15.499Z,66.17
2018-07-12T17:38:42.977Z,66.01
2018-07-12T17:41:10.444Z,66.07
2018-07-12T17:43:37.756Z,66.10
2018-07-12T17:46:05.118Z,67.47
2018-07-12T17:48:32.498Z,67.82
2018-07-12T17:50:59.900Z,67.44
2018-07-12T17:53:27.218Z,68.38
2018-07-12T17:55:54.518Z,68.17
2018-07-12T17:58:22.577Z,68.17
2018-07-12T18:00:50.057Z,67.99
2018-07-12T18:03:17.583Z,67.76
2018-07-12T18:05:44.917Z,69.24
2018-07-12T18:08:12.465Z,68.94
2018-07-12T18:10:39.855Z,69.77
2018-07-12T18:13:07.251Z,69.30
2018-07-12T18:15:35.270Z,69.64
2018-07-12T18:18:02.779Z,69.21
2018-07-12T18:20:30.124Z,70.44
2018-07-12T18:22:57.581Z,69.64
2018-07-12T18:25:25.102Z,70.11
2018-07-12T18:27:52.652Z,71.01
2018-07-12T18:30:20.214Z,71.15
2018-07-12T18:32:47.711Z,71.41
2018-07-12T18:35:15.183Z,72.27
2018-07-12T18:37:42.537Z,72.01
2018-07-12T18:40:10.185Z,72.57
2018-07-12T18:42:37.493Z,71.63
2018-07-12T18:45:04.742Z,72.34
2018-07-12T18:47:32.036Z,73.40
2018-07-12T18:49:59.442Z,73.52
2018-07-12T18:52:26.782Z,72.81
2018-07-12T18:54:54.081Z,73.55
2018-07-12T18:57:21.918Z,73.40
2018-07-12T18:59:49.597Z,74.91
2018-07-12T19:02:17.007Z,73.94
2018-07-12T19:04:44.828Z,74.24
2018-07-12T19:07:12.317Z,75.43
2018-07-12T19:09:39.644Z,74.52
2018-07-12T19:12:07.097Z,74.36
2018-07-12T19:14:34.433Z,75.39
2018-07-12T19:17:01.785Z,76.04
2018-07-12T19:19:29.242Z,73.25
2018-07-12T19:21:56.569Z,75.09
2018-07-12T19:24:24.006Z,74.20
2018-07-12T19:26:51.530Z,74.86
2018-07-12T19:29:18.956Z,75.93
2018-07-12T19:31:46.689Z,75.89
2018-07-12T19:34:14.035Z,76.22
2018-07-12T19:36:41.369Z,76.45
2018-07-12T19:39:08.982Z,76.72
2018-07-12T19:41:36.533Z,76.18
2018-07-12T19:44:03.927Z,76.64
2018-07-12T19:46:31.661Z,76.98
2018-07-12T19:48:59.046Z,76.71
2018-07-12T19:51:26.329Z,77.05
2018-07-12T19:53:53.807Z,77.07
2018-07-12T19:56:21.270Z,76.82
2018-07-12T19:58:48.542Z,76.64
2018-07-12T20:01:15.839Z,77.51
2018-07-12T20:03:43.252Z,77.90
2018-07-12T20:06:10.453Z,76.95
2018-07-12T20:08:37.710Z,77.26
2018-07-12T20:11:04.973Z,78.36
2018-07-12T20:13:32.834Z,78.73
2018-07-12T20:16:00.086Z,78.47
2018-07-12T20:18:27.389Z,78.38
2018-07-12T20:20:54.710Z,78.47
2018-07-12T20:23:22.083Z,78.90
2018-07-12T20:25:49.378Z,77.54
2018-07-12T20:28:16.857Z,79.19
2018-07-12T20:30:44.485Z,77.88
2018-07-12T20:33:12.473Z,79.60
2018-07-12T20:35:39.721Z,79.28
2018-07-12T20:38:06.981Z,79.11
2018-07-12T20:40:34.689Z,79.70
2018-07-12T20:43:02.022Z,79.81
2018-07-12T20:45:29.236Z,79.50
2018-07-12T20:47:56.498Z,80.50
2018-07-12T20:50:23.764Z,78.65
2018-07-12T20:52:50.981Z,80.42
2018-07-12T20:55:18.257Z,80.14
2018-07-12T20:57:45.582Z,80.62
2018-07-12T21:00:12.801Z,80.60
2018-07-12T21:02:40.170Z,81.21
2018-07-12T21:05:07.381Z,80.79
2018-07-12T21:07:34.705Z,80.41
2018-07-12T21:10:01.975Z,81.07
2018-07-12T21:12:29.683Z,81.13
2018-07-12T21:14:57.005Z,81.35
2018-07-12T21:17:24.246Z,81.53
2018-07-12T21:19:51.561Z,80.81
2018-07-12T21:22:18.878Z,81.74
2018-07-12T21:24:46.172Z,80.27
2018-07-12T21:27:13.446Z,81.39
2018-07-12T21:29:40.677Z,80.34
2018-07-12T21:32:07.925Z,81.70
2018-07-12T21:34:35.403Z,81.64
2018-07-12T21:37:02.770Z,80.95
2018-07-12T21:39:30.160Z,82.18
2018-07-12T21:41:57.529Z,82.28
2018-07-12T21:44:24.819Z,82.54
2018-07-12T21:46:52.026Z,81.52
2018-07-12T21:49:19.259Z,81.55
2018-07-12T21:51:47.291Z,82.52
2018-07-12T21:54:14.475Z,82.61
2018-07-12T21:56:41.701Z,82.67
2018-07-12T21:59:09.010Z,82.81
2018-07-12T22:01:36.406Z,82.54
2018-07-12T22:04:03.760Z,82.45
2018-07-12T22:08:42.702Z,82.36
2018-07-12T22:11:10.079Z,81.71
2018-07-12T22:13:37.714Z,81.88
2018-07-12T22:16:05.084Z,82.50
2018-07-12T22:18:32.362Z,81.35
2018-07-12T22:20:59.679Z,81.77
2018-07-12T22:23:26.886Z,82.55
2018-07-12T22:25:54.130Z,82.82
2018-07-12T22:28:21.778Z,83.42
2018-07-12T22:30:49.136Z,82.32
2018-07-12T22:33:16.373Z,83.66
2018-07-12T22:35:43.741Z,83.07
2018-07-12T22:38:11.328Z,82.28
2018-07-12T22:40:38.722Z,82.22
2018-07-12T22:43:06.689Z,82.78
2018-07-12T22:45:34.051Z,82.11
2018-07-12T22:48:01.716Z,83.16
2018-07-12T22:50:29.185Z,82.35
2018-07-12T22:52:56.496Z,84.22
2018-07-12T22:55:23.796Z,84.00
2018-07-12T22:57:51.053Z,84.04
2018-07-12T23:00:18.484Z,83.54
2018-07-12T23:02:45.769Z,83.25
2018-07-12T23:05:13.362Z,83.93
2018-07-12T23:07:40.695Z,83.44
2018-07-12T23:10:07.952Z,83.18
2018-07-12T23:12:35.157Z,82.59
2018-07-12T23:15:03.017Z,82.76
2018-07-12T23:17:30.268Z,82.61
2018-07-12T23:19:57.582Z,82.72
2018-07-12T23:22:24.981Z,83.90
2018-07-12T23:24:52.630Z,82.17
2018-07-12T23:27:19.870Z,81.81
2018-07-12T23:29:47.429Z,81.88
2018-07-12T23:32:14.785Z,81.87
2018-07-12T23:34:42.137Z,81.78
2018-07-12T23:37:09.394Z,82.55
2018-07-12T23:39:37.053Z,82.31
2018-07-12T23:42:04.619Z,83.01
2018-07-12T23:44:32.131Z,82.82
2018-07-12T23:46:59.415Z,81.26
2018-07-12T23:49:26.704Z,79.67
2018-07-12T23:51:53.967Z,80.05
2018-07-12T23:54:21.914Z,82.45
2018-07-12T23:56:49.524Z,82.06
2018-07-12T23:59:17.237Z,82.12
